IJK weather

Izhevsk Airport
Izhevsk, Udmurt Republic, Russia

Public forecast

Using degrees Celsius for public forecast. Weather courtesy of forecast.io.

METAR (pilot weather report)

Closest report is Begishevo Airport, 88.5 nm (163.9 km) SSW. Retrieved 2019/03/26 02:30 UTC (2 minutes ago):

UWKE 260230Z 24005G10MPS 9999 DRSN OVC012CB M01/M03 Q1005 R21/521038 NOSIG RMK QFE737/0982

TAF (pilot weather forecast)

Closest forecast is Begishevo Airport, 88.5 nm (163.9 km) SSW. Retrieved 2019/03/26 03:21 UTC (0 seconds ago):

TAF UWKE 260145Z 2603/2703 23007G12MPS 5000 -SN BLSN OVC011 TEMPO 2603/2609 27009G16MPS 0700 +SHSN FZRA FZFG BKN003 BKN015CB BECMG 2609/2611 19007G12MPS